Time;durP1;ratioP1;P1;durP2;ratioP2;P2;SDS_P1;SDS_P2;PMS_P1;PMS_P2;Temp;Humidity;BMP_temperature;BMP_pressure;BME280_temperature;BME280_humidity;BME280_pressure;Samples;Min_cycle;Max_cycle;Signal;HPM_P1;HPM_P2
2022/04/05 06:33:15;;;;;;;31.15;24.55;;;;;;;1.33;87.02;96604.54;1889944;76;28577;-60
2022/04/05 06:35:46;;;;;;;16.30;14.23;;;;;;;1.36;86.42;96620.38;1861619;77;20977;-62
2022/04/05 06:38:14;;;;;;;20.15;14.28;;;;;;;1.47;86.05;96604.79;1861436;77;21780;-64
2022/04/05 06:40:43;;;;;;;13.83;11.65;;;;;;;1.60;85.65;96592.91;1861190;77;20865;-68
2022/04/05 06:43:11;;;;;;;15.00;11.85;;;;;;;1.74;85.15;96600.53;1861691;77;20836;-62
2022/04/05 06:45:40;;;;;;;15.50;11.63;;;;;;;1.90;84.54;96596.80;1861160;77;20878;-59
2022/04/05 06:48:09;;;;;;;16.32;11.88;;;;;;;2.03;83.72;96600.17;1827694;78;20919;-65
2022/04/05 06:50:37;;;;;;;13.43;11.75;;;;;;;2.18;83.03;96607.27;1827846;78;21186;-64
2022/04/05 06:53:04;;;;;;;15.72;11.73;;;;;;;2.30;82.75;96601.94;1827747;78;21437;-65
2022/04/05 06:55:31;;;;;;;15.05;11.20;;;;;;;2.46;82.14;96598.69;1828093;78;20851;-64
2022/04/05 06:57:59;;;;;;;14.40;10.78;;;;;;;2.60;81.30;96595.19;1826947;78;20966;-69
2022/04/05 07:00:27;;;;;;;12.07;10.78;;;;;;;2.75;80.60;96601.72;1826133;78;21109;-66
2022/04/05 07:02:56;;;;;;;12.18;10.90;;;;;;;2.90;80.14;96600.05;1826135;78;21524;-57
2022/04/05 07:05:24;;;;;;;13.65;10.45;;;;;;;3.04;79.19;96592.52;1826132;78;21093;-64
2022/04/05 07:07:51;;;;;;;12.37;9.35;;;;;;;3.17;78.60;96595.08;1826075;78;21034;-58
2022/04/05 07:10:20;;;;;;;10.45;9.18;;;;;;;3.28;78.06;96594.72;1826119;78;21081;-67
2022/04/05 07:12:47;;;;;;;12.50;9.40;;;;;;;3.40;77.42;96597.00;1826731;78;20952;-65
2022/04/05 07:15:16;;;;;;;12.50;9.98;;;;;;;3.48;76.60;96590.32;1827763;78;20966;-66
2022/04/05 07:17:44;;;;;;;10.63;9.03;;;;;;;3.54;76.21;96587.34;1827944;78;21426;-65
2022/04/05 07:20:11;;;;;;;8.98;7.87;;;;;;;3.63;75.40;96590.96;1854150;77;20875;-65
2022/04/05 07:22:48;;;;;;;10.72;8.15;;;;;;;3.72;74.99;96587.95;1861519;77;20864;-66
2022/04/05 07:25:18;;;;;;;9.45;8.00;;;;;;;3.80;74.64;96587.36;1861600;77;20923;-62
2022/04/05 07:27:49;;;;;;;10.88;8.88;;;;;;;3.87;72.75;96589.14;1861870;77;21155;-64
2022/04/05 07:30:16;;;;;;;10.80;8.58;;;;;;;3.91;73.20;96592.80;1861738;76;20903;-61
2022/04/05 07:32:44;;;;;;;9.00;7.80;;;;;;;3.93;72.19;96586.67;1856551;77;20962;-64
2022/04/05 07:35:13;;;;;;;9.13;8.10;;;;;;;3.94;72.30;96600.19;1844821;77;20967;-64
2022/04/05 07:37:41;;;;;;;8.85;7.95;;;;;;;3.96;71.47;96594.59;1845253;77;21035;-61
2022/04/05 07:40:10;;;;;;;9.00;7.47;;;;;;;4.00;71.93;96599.05;1845523;77;22040;-60
2022/04/05 07:42:39;;;;;;;7.78;6.97;;;;;;;4.01;71.60;96605.94;1845704;77;21148;-64
2022/04/05 07:45:08;;;;;;;7.97;6.97;;;;;;;4.06;71.55;96596.62;1845100;77;20983;-62
2022/04/05 07:47:35;;;;;;;8.18;7.37;;;;;;;4.13;71.68;96607.67;1844856;77;20912;-61
2022/04/05 07:50:04;;;;;;;8.48;7.20;;;;;;;4.22;71.23;96607.03;1845901;77;21466;-66
2022/04/05 07:52:37;;;;;;;8.70;7.85;;;;;;;4.34;71.13;96610.07;1846133;77;21169;-60
2022/04/05 07:55:07;;;;;;;8.10;7.30;;;;;;;4.45;70.17;96604.92;1845937;77;20939;-65
2022/04/05 07:57:36;;;;;;;9.83;7.75;;;;;;;4.52;69.66;96609.34;1845842;77;20932;-65
2022/04/05 08:00:04;;;;;;;9.28;7.00;;;;;;;4.58;69.95;96605.53;1845833;77;20991;-57
2022/04/05 08:02:34;;;;;;;9.25;7.50;;;;;;;4.67;70.20;96617.08;1845013;77;20960;-63
2022/04/05 08:05:03;;;;;;;8.23;7.42;;;;;;;4.75;69.59;96607.17;1846347;77;21238;-59
2022/04/05 08:07:33;;;;;;;10.03;7.95;;;;;;;4.80;68.99;96605.22;1847945;77;21426;-67
2022/04/05 08:10:00;;;;;;;8.55;7.70;;;;;;;4.79;68.64;96612.16;1855247;77;20899;-64
2022/04/05 09:21:52;;;;;;;13.98;12.40;;;;;;;3.87;80.52;96638.14;1889340;76;28127;-58
2022/04/05 09:24:20;;;;;;;11.45;9.28;;;;;;;3.83;81.04;96634.48;1861312;77;20868;-67
2022/04/05 09:26:52;;;;;;;11.73;10.08;;;;;;;3.91;81.29;96647.66;1861470;77;20867;-60
2022/04/05 09:29:19;;;;;;;13.45;10.75;;;;;;;3.98;81.53;96639.61;1861555;77;20864;-62
2022/04/05 09:31:48;;;;;;;10.23;9.23;;;;;;;4.06;81.58;96630.27;1861583;77;20906;-59
2022/04/05 09:34:21;;;;;;;9.45;8.55;;;;;;;4.15;81.81;96624.60;1861541;77;20947;-63
2022/04/05 09:36:50;;;;;;;9.60;8.60;;;;;;;4.21;81.50;96642.57;1861658;77;20874;-60
2022/04/05 09:39:26;;;;;;;8.73;7.83;;;;;;;4.24;81.01;96620.81;1861618;77;21204;-59
2022/04/05 09:42:00;;;;;;;9.00;8.18;;;;;;;4.25;81.48;96639.60;1861574;77;21397;-60
2022/04/05 09:44:32;;;;;;;10.18;8.50;;;;;;;4.29;81.41;96628.68;1860934;77;20843;-63
2022/04/05 09:47:16;;;;;;;10.18;9.18;;;;;;;4.35;81.74;96631.02;1854309;77;21000;-62
2022/04/05 09:49:45;;;;;;;8.98;8.08;;;;;;;4.41;81.94;96630.40;1860114;77;21117;-60
2022/04/05 09:52:33;;;;;;;9.43;8.53;;;;;;;4.50;81.64;96639.33;1859837;77;22252;-59
2022/04/05 09:55:14;;;;;;;9.25;8.30;;;;;;;4.52;81.61;96629.23;1860768;77;21464;-62
2022/04/05 09:57:43;;;;;;;11.10;8.53;;;;;;;4.51;81.60;96624.45;1861040;77;20952;-59
2022/04/05 10:00:16;;;;;;;10.68;9.53;;;;;;;4.53;81.91;96628.14;1860798;77;21063;-64
2022/04/05 10:03:08;;;;;;;9.95;8.95;;;;;;;4.56;81.75;96618.30;1828665;77;20993;-67
2022/04/05 10:05:35;;;;;;;10.53;8.18;;;;;;;4.59;82.10;96615.84;1861863;77;21073;-65
2022/04/05 10:08:08;;;;;;;15.83;8.75;;;;;;;4.63;81.97;96622.19;1861367;77;21032;-63
2022/04/05 10:10:41;;;;;;;10.25;8.88;;;;;;;4.67;81.80;96619.73;1861798;77;20877;-64
2022/04/05 10:13:09;;;;;;;10.93;9.08;;;;;;;4.74;82.08;96620.17;1861477;77;21370;-61
2022/04/05 10:15:37;;;;;;;13.30;9.38;;;;;;;4.82;82.16;96622.99;1861448;77;20868;-61
2022/04/05 10:18:06;;;;;;;11.53;10.25;;;;;;;4.87;81.94;96623.46;1861556;77;21414;-60
2022/04/05 10:20:35;;;;;;;11.30;8.68;;;;;;;4.89;81.70;96624.48;1858762;76;20976;-65
2022/04/05 10:23:03;;;;;;;10.32;8.90;;;;;;;4.87;81.13;96623.99;1855901;77;20964;-63
2022/04/05 10:25:33;;;;;;;11.48;9.78;;;;;;;4.86;81.55;96619.22;1855742;77;21266;-60
2022/04/05 10:28:02;;;;;;;10.20;9.28;;;;;;;4.83;80.79;96642.33;1855861;77;20882;-61
2022/04/05 10:30:40;;;;;;;10.80;9.23;;;;;;;4.80;80.63;96626.44;1855753;77;21232;-60
2022/04/05 10:33:21;;;;;;;10.38;9.33;;;;;;;4.77;80.85;96620.94;1786933;77;21430;-59
2022/04/05 10:35:53;;;;;;;9.40;8.43;;;;;;;4.73;80.79;96616.72;1855366;77;20889;-59
2022/04/05 10:38:21;;;;;;;9.65;8.45;;;;;;;4.70;80.50;96608.56;1855249;77;20906;-61
2022/04/05 10:41:20;;;;;;;10.45;9.33;;;;;;;4.66;80.96;96643.38;1855108;77;20909;-65
2022/04/05 10:44:19;;;;;;;10.50;9.40;;;;;;;4.63;81.15;96626.69;1855202;77;21220;-60
2022/04/05 10:47:01;;;;;;;10.50;8.50;;;;;;;4.61;81.41;96619.56;1855059;77;20941;-65
2022/04/05 10:49:43;;;;;;;9.30;8.35;;;;;;;4.64;81.43;96620.33;1823116;77;20917;-59
2022/04/05 10:52:15;;;;;;;9.88;8.88;;;;;;;4.71;81.50;96618.11;1855215;77;20909;-60
2022/04/05 10:54:59;;;;;;;9.43;8.33;;;;;;;4.75;81.46;96625.21;1855555;77;20916;-64
2022/04/05 10:57:35;;;;;;;10.93;9.30;;;;;;;4.77;81.57;96609.00;1797128;77;21155;-58
2022/04/05 11:00:12;;;;;;;;;;;;;;;4.77;81.29;96622.27;1857806;77;20858;-60
2022/04/05 11:03:01;;;;;;;8.68;7.87;;;;;;;4.79;81.72;96616.92;1855245;77;20076;-61
2022/04/05 11:05:36;;;;;;;9.80;8.80;;;;;;;4.82;81.87;96618.22;1855147;77;20859;-62
2022/04/05 11:08:08;;;;;;;9.93;8.90;;;;;;;4.90;82.17;96628.17;1824353;77;20968;-63
2022/04/05 11:10:46;;;;;;;10.43;9.43;;;;;;;4.95;81.39;96618.02;1855111;77;21319;-60
2022/04/05 11:13:24;;;;;;;10.18;9.15;;;;;;;4.94;81.55;96627.08;1855063;77;20957;-61
2022/04/05 11:15:56;;;;;;;10.00;8.78;;;;;;;4.90;81.41;96625.52;1854123;77;20874;-64
2022/04/05 11:18:33;;;;;;;8.70;7.80;;;;;;;4.87;81.81;96616.83;1855097;77;21345;-61
2022/04/05 11:21:00;;;;;;;9.08;8.08;;;;;;;4.88;82.05;96627.67;1852317;77;20846;-60
2022/04/05 11:23:48;;;;;;;9.95;8.95;;;;;;;4.91;82.34;96635.07;1825742;77;20999;-63
2022/04/05 11:26:50;;;;;;;;;;;;;;;;;;;;;
2022/04/05 11:29:21;;;;;;;9.75;8.75;;;;;;;4.95;82.53;96626.78;1843962;77;21460;-65
2022/04/05 11:32:07;;;;;;;10.10;8.93;;;;;;;4.99;82.73;96642.41;1849594;77;20909;-61
2022/04/05 11:34:38;;;;;;;12.82;11.53;;;;;;;5.02;83.12;96635.70;1849435;77;21376;-63
2022/04/05 11:37:06;;;;;;;9.90;9.00;;;;;;;5.01;83.18;96629.63;1849098;77;21037;-58
2022/04/05 11:39:39;;;;;;;10.30;9.28;;;;;;;4.97;82.80;96632.58;1849533;77;20889;-63
2022/04/05 11:42:10;;;;;;;9.93;8.93;;;;;;;4.96;83.05;96632.35;1849411;77;20921;-58
2022/04/05 11:44:42;;;;;;;8.75;7.92;;;;;;;4.97;83.29;96637.89;1849064;77;20842;-62
2022/04/05 11:47:09;;;;;;;9.75;8.68;;;;;;;4.99;83.54;96633.64;1786309;79;20968;-62
2022/04/05 11:49:42;;;;;;;10.20;9.13;;;;;;;4.99;83.51;96633.11;1808998;79;21287;-60
2022/04/05 11:52:10;;;;;;;9.80;8.68;;;;;;;5.00;83.79;96630.69;1809034;79;20905;-62
2022/04/05 11:56:00;;;;;;;11.18;9.05;;;;;;;4.99;83.80;96625.69;1808970;79;20922;-60
2022/04/05 11:57:08;;;;;;;10.18;7.97;;;;;;;5.01;84.18;96624.33;1805713;79;20965;-58
2022/04/05 11:59:36;;;;;;;8.85;7.95;;;;;;;5.04;84.54;96623.73;1767196;81;21554;-60
2022/04/05 12:02:04;;;;;;;8.65;7.80;;;;;;;5.06;84.48;96621.60;1761471;80;22123;-62
2022/04/05 12:04:32;;;;;;;8.98;8.05;;;;;;;5.09;84.49;96634.80;1754804;80;20877;-65
2022/04/05 12:07:01;;;;;;;9.90;8.90;;;;;;;5.11;84.16;96627.38;1741307;82;20884;-60
2022/04/05 12:09:31;;;;;;;9.85;8.10;;;;;;;5.12;84.13;96623.09;1773905;80;20878;-59
2022/04/05 12:12:04;;;;;;;8.78;7.97;;;;;;;5.11;84.45;96624.16;1848559;77;20908;-65
2022/04/05 12:14:37;;;;;;;8.63;7.83;;;;;;;5.11;84.57;96632.68;1808473;79;21037;-64
2022/04/05 12:17:05;;;;;;;8.48;7.67;;;;;;;5.07;84.85;96633.78;1807953;79;20923;-64
2022/04/05 12:19:39;;;;;;;9.45;8.55;;;;;;;5.06;84.90;96632.75;1808447;79;21026;-64
2022/04/05 12:22:08;;;;;;;10.72;9.68;;;;;;;5.03;84.89;96627.47;1820742;78;21424;-60
2022/04/05 12:24:42;;;;;;;11.18;8.25;;;;;;;5.04;85.20;96629.03;1823299;78;20934;-65
2022/04/05 12:27:10;;;;;;;8.55;6.85;;;;;;;5.05;85.27;96629.83;1822414;78;21233;-64
2022/04/05 12:29:40;;;;;;;9.28;8.35;;;;;;;5.03;85.22;96639.42;1823238;78;21414;-60
2022/04/05 12:32:10;;;;;;;8.88;8.08;;;;;;;5.04;85.39;96635.67;1823508;78;20939;-64
2022/04/05 12:34:42;;;;;;;9.20;8.20;;;;;;;5.03;85.72;96632.78;1823173;78;20918;-65
2022/04/05 12:37:14;;;;;;;8.48;7.17;;;;;;;5.02;85.79;96636.50;1823238;78;21318;-63
2022/04/05 12:39:48;;;;;;;8.63;7.45;;;;;;;5.01;85.77;96632.28;1823336;78;21193;-63
2022/04/05 12:42:17;;;;;;;10.03;8.98;;;;;;;4.96;86.00;96634.20;1823232;78;21374;-59
2022/04/05 12:44:48;;;;;;;9.28;8.38;;;;;;;4.92;86.38;96639.31;1823113;78;20907;-63
2022/04/05 12:47:23;;;;;;;9.23;8.00;;;;;;;4.90;87.03;96638.78;1823130;78;20919;-59
2022/04/05 12:49:54;;;;;;;8.03;7.22;;;;;;;4.85;87.36;96652.14;1823316;78;20895;-65
2022/04/05 12:52:29;;;;;;;8.45;7.65;;;;;;;4.79;87.76;96657.25;1823257;78;20989;-59
2022/04/05 12:55:00;;;;;;;9.28;8.38;;;;;;;4.74;87.83;96647.49;1823570;78;21387;-64
2022/04/05 12:57:34;;;;;;;9.78;8.85;;;;;;;4.72;88.07;96647.52;1823124;78;20921;-63
2022/04/05 13:00:19;;;;;;;8.95;8.05;;;;;;;4.73;88.16;96643.25;1823218;78;20891;-58
2022/04/05 13:03:01;;;;;;;8.70;7.80;;;;;;;4.73;88.27;96649.88;1823629;78;20887;-63
2022/04/05 13:08:35;;;;;;;;;;;;;;;4.70;89.10;96652.33;1800898;78;20981;-63
2022/04/05 13:11:03;;;;;;;8.33;7.53;;;;;;;4.67;89.46;96656.87;1823298;78;20363;-64
2022/04/05 13:13:40;;;;;;;12.55;10.20;;;;;;;4.65;89.82;96648.41;1823247;78;21405;-61
2022/04/05 13:16:11;;;;;;;27.48;16.75;;;;;;;4.63;89.84;96650.03;1793986;78;21413;-60
2022/04/05 13:18:46;;;;;;;10.50;9.15;;;;;;;4.63;90.07;96655.34;1823136;78;20925;-59
2022/04/05 13:21:17;;;;;;;22.35;16.07;;;;;;;4.62;90.14;96658.25;1818121;78;21434;-64
2022/04/05 13:24:04;;;;;;;19.50;15.25;;;;;;;4.65;90.32;96655.04;1809473;79;20931;-65
2022/04/05 13:26:40;;;;;;;9.40;8.40;;;;;;;4.70;90.48;96653.13;1809396;79;20990;-63
2022/04/05 13:29:20;;;;;;;15.35;13.75;;;;;;;4.70;90.22;96657.63;1780227;79;20990;-59
2022/04/05 13:31:52;;;;;;;19.35;17.35;;;;;;;4.69;90.69;96656.04;1809508;79;21115;-64
2022/04/05 13:34:24;;;;;;;9.43;8.53;;;;;;;4.71;90.96;96663.20;1809457;79;20915;-58
2022/04/05 13:36:54;;;;;;;9.35;8.38;;;;;;;4.74;91.04;96663.94;1809421;79;21435;-62
2022/04/05 13:39:32;;;;;;;8.60;7.37;;;;;;;4.74;90.98;96660.76;1809634;79;20896;-64
2022/04/05 13:42:09;;;;;;;16.07;13.80;;;;;;;4.72;90.74;96666.09;1809574;79;21435;-59
2022/04/05 13:44:39;;;;;;;13.80;11.43;;;;;;;4.70;90.86;96665.59;1809779;79;21216;-61
2022/04/05 13:47:07;;;;;;;10.70;9.63;;;;;;;4.70;90.79;96692.11;1809505;79;20905;-59
2022/04/05 13:49:41;;;;;;;16.85;15.05;;;;;;;4.68;90.58;96678.35;1781616;79;20970;-62
2022/04/05 13:52:12;;;;;;;9.35;8.40;;;;;;;4.68;90.98;96669.06;1781333;79;21450;-58
2022/04/05 13:54:41;;;;;;;9.48;8.63;;;;;;;4.69;91.19;96666.66;1780642;79;20919;-61
2022/04/05 13:57:18;;;;;;;9.45;8.55;;;;;;;4.66;91.38;96675.97;1780612;79;21263;-65
2022/04/05 13:59:47;;;;;;;9.83;8.90;;;;;;;4.65;91.32;96678.91;1809571;79;21517;-64
2022/04/05 14:02:18;;;;;;;9.25;8.33;;;;;;;4.64;91.48;96678.67;1809360;79;20907;-65
2022/04/05 14:04:47;;;;;;;8.83;7.95;;;;;;;4.61;91.45;96677.37;1809811;79;20911;-62
2022/04/05 14:07:17;;;;;;;9.08;8.18;;;;;;;4.59;91.54;96674.19;1809440;79;20990;-60
2022/04/05 14:09:47;;;;;;;9.58;8.68;;;;;;;4.58;91.58;96679.26;1780030;79;22043;-64
2022/04/05 14:12:17;;;;;;;9.20;8.30;;;;;;;4.58;91.55;96678.47;1809439;79;20935;-57
2022/04/05 14:14:48;;;;;;;8.58;7.65;;;;;;;4.55;91.36;96674.52;1809869;79;20954;-64
2022/04/05 14:17:16;;;;;;;8.48;7.67;;;;;;;4.53;91.60;96679.84;1809485;79;20891;-64
2022/04/05 14:19:45;;;;;;;8.53;7.72;;;;;;;4.53;91.97;96673.22;1808440;79;20911;-60
2022/04/05 14:22:14;;;;;;;10.18;9.15;;;;;;;4.53;92.13;96674.01;1809074;78;21256;-61
2022/04/05 14:24:42;;;;;;;10.13;9.13;;;;;;;4.54;92.36;96672.16;1786237;79;20923;-65
2022/04/05 14:27:12;;;;;;;9.75;8.75;;;;;;;4.54;92.50;96676.92;1809193;79;20900;-60
2022/04/05 14:29:41;;;;;;;9.25;8.35;;;;;;;4.55;92.34;96673.72;1808869;79;21466;-61
2022/04/05 14:32:12;;;;;;;8.85;7.83;;;;;;;4.55;92.46;96685.13;1808950;79;20884;-65
2022/04/05 14:34:40;;;;;;;9.55;8.55;;;;;;;4.59;92.67;96682.70;1786968;79;21039;-67
2022/04/05 14:37:09;;;;;;;10.85;8.58;;;;;;;4.61;92.75;96685.33;1808858;79;20852;-61
2022/04/05 14:39:38;;;;;;;9.85;8.95;;;;;;;4.64;92.57;96679.44;1786683;79;20935;-67
2022/04/05 14:42:11;;;;;;;9.13;8.23;;;;;;;4.66;92.66;96677.85;1808999;79;20943;-65
2022/04/05 14:44:39;;;;;;;7.60;6.80;;;;;;;4.67;92.49;96679.41;1808951;79;20922;-65
2022/04/05 14:47:09;;;;;;;8.18;7.35;;;;;;;4.70;92.21;96681.50;1809023;79;21454;-59
2022/04/05 14:49:39;;;;;;;10.75;8.60;;;;;;;4.68;92.21;96685.78;1808982;79;20887;-64
2022/04/05 14:52:10;;;;;;;9.35;8.45;;;;;;;4.66;92.07;96681.27;1809024;79;21473;-63
2022/04/05 14:54:40;;;;;;;12.40;10.50;;;;;;;4.69;92.14;96679.91;1809115;79;20978;-64
2022/04/05 14:57:08;;;;;;;10.82;9.73;;;;;;;4.70;91.85;96676.20;1808943;79;20986;-61
2022/04/05 14:59:38;;;;;;;9.28;8.38;;;;;;;4.73;91.88;96680.95;1808862;79;21181;-61
2022/04/05 15:02:08;;;;;;;8.00;7.30;;;;;;;4.76;91.67;96688.31;1808891;79;21015;-60
2022/04/05 15:04:38;;;;;;;7.62;6.92;;;;;;;4.76;91.26;96691.77;1809011;79;20954;-65
2022/04/05 15:07:08;;;;;;;8.40;7.53;;;;;;;4.74;91.07;96691.27;1808918;79;21490;-58
2022/04/05 15:09:38;;;;;;;8.03;7.28;;;;;;;4.72;90.98;96688.11;1808911;79;20966;-60
2022/04/05 15:12:08;;;;;;;7.75;6.95;;;;;;;4.73;90.92;96684.92;1809360;79;21179;-65
2022/04/05 15:14:39;;;;;;;7.75;6.95;;;;;;;4.74;90.78;96691.80;1808794;79;20938;-59
2022/04/05 15:17:08;;;;;;;7.75;6.92;;;;;;;4.76;90.91;96679.03;1808961;79;21513;-61
2022/04/05 15:19:38;;;;;;;8.45;7.30;;;;;;;4.76;90.77;96686.45;1808931;79;20966;-59
2022/04/05 15:22:08;;;;;;;9.05;7.70;;;;;;;4.72;90.81;96688.11;1815682;78;20989;-61
2022/04/05 15:24:37;;;;;;;9.33;8.35;;;;;;;4.73;90.82;96688.91;1823211;78;21042;-64
2022/04/05 15:27:06;;;;;;;8.73;7.85;;;;;;;4.71;90.87;96688.41;1823165;78;20942;-60
2022/04/05 15:29:39;;;;;;;8.13;6.97;;;;;;;4.74;91.04;96686.48;1793961;78;20978;-66
2022/04/05 15:32:11;;;;;;;8.08;6.97;;;;;;;4.78;91.07;96696.80;1823326;78;21504;-64
2022/04/05 15:34:38;;;;;;;7.22;6.58;;;;;;;4.77;90.78;96689.38;1823423;78;20879;-62
2022/04/05 15:37:07;;;;;;;7.67;6.90;;;;;;;4.77;90.49;96684.60;1823206;78;22041;-61
2022/04/05 15:39:36;;;;;;;8.40;6.83;;;;;;;4.79;90.34;96687.75;1823251;78;20938;-66
2022/04/05 15:42:06;;;;;;;7.58;6.83;;;;;;;4.80;90.06;96676.08;1823254;78;20923;-65
2022/04/05 15:44:35;;;;;;;7.17;6.22;;;;;;;4.82;90.17;96680.56;1793804;78;20981;-61
2022/04/05 15:47:04;;;;;;;7.17;6.47;;;;;;;4.87;90.01;96681.83;1823634;78;20930;-60
2022/04/05 15:49:32;;;;;;;8.18;6.28;;;;;;;4.90;89.18;96681.23;1823221;78;21267;-59
2022/04/05 15:52:00;;;;;;;10.93;6.22;;;;;;;4.94;89.29;96676.96;1793643;78;20902;-63
2022/04/05 15:54:28;;;;;;;7.85;5.87;;;;;;;4.99;89.07;96671.59;1823311;78;20891;-65
2022/04/05 15:56:57;;;;;;;7.22;6.53;;;;;;;5.02;88.63;96680.28;1793952;78;21537;-61
2022/04/05 15:59:29;;;;;;;7.17;6.17;;;;;;;5.07;88.23;96684.73;1823213;78;20922;-61
2022/04/05 16:01:57;;;;;;;9.20;7.28;;;;;;;5.09;87.24;96683.38;1823204;78;21098;-65
2022/04/05 16:04:26;;;;;;;6.87;6.17;;;;;;;5.11;87.45;96669.28;1823131;78;21502;-62
2022/04/05 16:06:54;;;;;;;7.83;7.12;;;;;;;5.10;87.02;96680.19;1823174;78;20938;-65
2022/04/05 16:09:26;;;;;;;8.73;7.83;;;;;;;5.10;87.06;96677.00;1823136;78;21001;-61
2022/04/05 16:11:56;;;;;;;7.30;6.60;;;;;;;5.06;86.89;96677.33;1823288;78;20946;-62
2022/04/05 16:14:25;;;;;;;7.75;6.87;;;;;;;5.01;86.25;96672.63;1823250;78;21473;-60
2022/04/05 16:16:52;;;;;;;6.83;6.12;;;;;;;4.97;86.00;96671.06;1823216;78;21455;-64
2022/04/05 16:19:19;;;;;;;7.28;6.58;;;;;;;4.95;85.99;96680.38;1823280;78;20922;-61
2022/04/05 16:21:48;;;;;;;7.35;6.65;;;;;;;4.94;86.26;96670.86;1792852;78;20926;-62
2022/04/05 16:24:22;;;;;;;6.95;6.25;;;;;;;4.91;86.23;96676.20;1819843;78;20993;-60
2022/04/05 16:26:51;;;;;;;9.73;7.83;;;;;;;4.90;86.08;96673.28;1819761;78;20946;-64
2022/04/05 16:29:21;;;;;;;6.87;6.28;;;;;;;4.88;86.15;96679.41;1819735;78;20910;-63
2022/04/05 16:31:49;;;;;;;8.93;7.80;;;;;;;4.87;86.26;96683.16;1819853;78;20882;-63
2022/04/05 16:34:18;;;;;;;7.53;6.40;;;;;;;4.85;86.24;96689.29;1819663;78;21454;-62
2022/04/05 16:36:46;;;;;;;7.85;7.08;;;;;;;4.82;86.30;96695.16;1819835;78;20997;-64
2022/04/05 16:39:13;;;;;;;9.50;7.28;;;;;;;4.78;86.18;96680.89;1788255;78;21297;-57
2022/04/05 16:41:40;;;;;;;8.75;7.05;;;;;;;4.76;86.32;96697.59;1819728;78;20922;-59
2022/04/05 16:44:08;;;;;;;7.72;6.25;;;;;;;4.76;86.24;96704.23;1819724;78;20969;-60
2022/04/05 16:46:37;;;;;;;7.10;6.40;;;;;;;4.73;86.29;96693.65;1819735;78;21401;-65
2022/04/05 16:49:04;;;;;;;7.67;6.80;;;;;;;4.72;86.33;96704.02;1819942;78;21508;-63
2022/04/05 16:51:32;;;;;;;7.45;6.75;;;;;;;4.73;86.39;96715.43;1819786;78;21765;-66
2022/04/05 16:54:00;;;;;;;7.97;7.17;;;;;;;4.73;86.49;96710.13;1819631;78;21334;-66
2022/04/05 16:56:27;;;;;;;10.05;8.20;;;;;;;4.75;86.50;96710.63;1819806;78;20887;-64
2022/04/05 16:58:56;;;;;;;13.22;9.68;;;;;;;4.74;86.59;96719.64;1820028;78;20986;-59
2022/04/05 17:01:24;;;;;;;8.70;7.80;;;;;;;4.74;86.47;96717.79;1819693;78;21367;-60
2022/04/05 17:03:54;;;;;;;10.10;8.75;;;;;;;4.75;86.47;96711.95;1819705;78;22061;-63
2022/04/05 17:06:22;;;;;;;11.78;10.40;;;;;;;4.73;86.46;96718.84;1819657;78;20922;-62
2022/04/05 17:08:50;;;;;;;9.30;7.67;;;;;;;4.72;86.60;96716.48;1820009;78;21407;-59
2022/04/05 17:11:18;;;;;;;7.37;6.65;;;;;;;4.71;86.60;96724.21;1788565;78;20907;-62
2022/04/05 17:13:46;;;;;;;7.75;6.60;;;;;;;4.70;86.56;96715.45;1819703;78;20923;-64
2022/04/05 17:16:14;;;;;;;8.50;7.47;;;;;;;4.67;86.49;96717.88;1819900;78;21762;-62
2022/04/05 17:18:45;;;;;;;11.15;8.28;;;;;;;4.64;86.53;96715.80;1788409;78;21363;-58
2022/04/05 17:21:12;;;;;;;8.03;7.22;;;;;;;4.65;86.54;96717.36;1819690;78;20934;-64
2022/04/05 17:23:40;;;;;;;8.45;7.37;;;;;;;4.63;86.51;96731.45;1810260;77;21412;-60
2022/04/05 17:26:08;;;;;;;7.95;7.15;;;;;;;4.61;86.45;96736.25;1809155;79;21471;-62
2022/04/05 17:28:37;;;;;;;7.92;6.50;;;;;;;4.57;86.46;96737.89;1786693;79;21064;-60
2022/04/05 17:31:06;;;;;;;7.97;7.17;;;;;;;4.52;86.47;96743.25;1808834;79;20935;-61
2022/04/05 17:33:33;;;;;;;8.88;7.67;;;;;;;4.49;86.61;96747.78;1808898;79;20943;-60
2022/04/05 17:36:03;;;;;;;8.75;7.53;;;;;;;4.48;86.69;96744.86;1808777;79;20903;-62
2022/04/05 17:38:30;;;;;;;8.05;7.25;;;;;;;4.46;86.69;96749.66;1808827;79;21026;-66
2022/04/05 17:40:58;;;;;;;7.40;6.72;;;;;;;4.47;86.66;96757.88;1808808;79;21055;-64
2022/04/05 17:43:25;;;;;;;8.88;7.22;;;;;;;4.49;86.68;96750.43;1808980;79;20915;-60
2022/04/05 17:45:54;;;;;;;7.50;6.65;;;;;;;4.51;86.70;96756.23;1809018;79;21465;-66
2022/04/05 17:48:22;;;;;;;9.28;7.65;;;;;;;4.54;86.64;96767.63;1809159;79;21466;-64
2022/04/05 17:50:51;;;;;;;7.08;6.37;;;;;;;4.57;86.57;96764.41;1809297;79;21419;-60
2022/04/05 17:53:22;;;;;;;8.43;7.12;;;;;;;4.57;86.55;96764.41;1809090;79;21289;-64
2022/04/05 17:55:51;;;;;;;7.83;6.97;;;;;;;4.59;86.50;96763.59;1786508;79;20935;-64
2022/04/05 17:58:21;;;;;;;8.93;6.37;;;;;;;4.59;86.49;96772.88;1808956;79;21387;-61
2022/04/05 18:00:53;;;;;;;7.12;6.28;;;;;;;4.59;86.38;96759.05;1808985;79;20915;-60
2022/04/05 18:03:20;;;;;;;7.37;6.60;;;;;;;4.61;86.25;96760.91;1808971;79;20844;-62
2022/04/05 18:05:49;;;;;;;8.28;6.78;;;;;;;4.64;86.17;96771.50;1808950;79;21124;-58
2022/04/05 18:08:18;;;;;;;7.62;6.85;;;;;;;4.66;85.99;96761.39;1808960;79;21548;-64
2022/04/05 18:10:45;;;;;;;8.30;6.50;;;;;;;4.69;85.87;96771.42;1809441;79;20888;-59
2022/04/05 18:13:16;;;;;;;6.87;6.17;;;;;;;4.72;85.77;96774.84;1808940;79;21013;-59
2022/04/05 18:15:45;;;;;;;8.38;6.47;;;;;;;4.75;85.73;96775.62;1809030;79;20939;-64
2022/04/05 18:18:13;;;;;;;8.63;6.20;;;;;;;4.77;85.41;96782.75;1809061;79;21223;-59
2022/04/05 18:20:43;;;;;;;7.75;6.95;;;;;;;4.80;85.34;96782.20;1808928;79;20932;-61
2022/04/05 18:23:10;;;;;;;7.78;6.80;;;;;;;4.83;85.11;96782.94;1757196;79;21406;-60
2022/04/05 18:25:38;;;;;;;8.18;6.78;;;;;;;4.83;85.18;96784.27;1817614;79;20978;-63
2022/04/05 18:28:09;;;;;;;7.70;6.90;;;;;;;4.83;85.17;96794.88;1817855;79;21446;-59
2022/04/05 18:30:36;;;;;;;7.30;6.60;;;;;;;4.83;85.25;96790.37;1817680;79;21591;-64
2022/04/05 18:33:05;;;;;;;7.50;6.70;;;;;;;4.85;85.01;96806.02;1817537;79;20981;-59
2022/04/05 18:35:35;;;;;;;8.08;7.25;;;;;;;4.85;84.85;96806.80;1786409;79;21201;-61
2022/04/05 18:38:04;;;;;;;9.78;7.60;;;;;;;4.87;84.79;96816.34;1817602;79;20931;-61
2022/04/05 18:40:37;;;;;;;8.00;7.10;;;;;;;4.92;84.81;96826.38;1817562;79;20860;-62
2022/04/05 18:43:04;;;;;;;7.70;6.58;;;;;;;4.93;85.09;96824.49;1816711;79;21290;-59
2022/04/05 18:45:31;;;;;;;8.20;6.58;;;;;;;4.92;86.86;96818.42;1817446;78;20887;-64
2022/04/05 18:48:00;;;;;;;9.18;6.87;;;;;;;4.83;87.43;96821.41;1817611;79;20918;-63
2022/04/05 18:50:29;;;;;;;7.42;6.67;;;;;;;4.71;88.01;96818.38;1817484;79;21049;-66
2022/04/05 18:52:57;;;;;;;9.35;7.37;;;;;;;4.62;88.27;96820.03;1817497;79;20935;-61
2022/04/05 18:55:26;;;;;;;7.55;6.75;;;;;;;4.57;88.70;96831.48;1817826;79;21002;-60
2022/04/05 18:57:55;;;;;;;8.30;7.35;;;;;;;4.53;89.24;96828.34;1817437;79;20887;-63
2022/04/05 19:00:25;;;;;;;8.35;7.45;;;;;;;4.50;89.86;96825.71;1817501;79;20980;-62
2022/04/05 19:02:55;;;;;;;9.58;8.45;;;;;;;4.45;90.03;96832.94;1817464;79;20888;-59
2022/04/05 19:05:24;;;;;;;8.88;7.95;;;;;;;4.43;90.33;96837.17;1817607;79;20879;-62
2022/04/05 19:07:57;;;;;;;10.80;9.08;;;;;;;4.39;90.56;96840.13;1817601;79;20974;-65
2022/04/05 19:10:25;;;;;;;9.13;7.92;;;;;;;4.37;90.83;96841.48;1817344;79;21029;-58
2022/04/05 19:12:54;;;;;;;8.88;8.05;;;;;;;4.35;91.20;96845.75;1817653;79;20954;-62
2022/04/05 19:15:25;;;;;;;10.65;8.70;;;;;;;4.34;91.30;96847.33;1787174;79;21001;-58
2022/04/05 19:17:54;;;;;;;10.35;9.15;;;;;;;4.33;91.37;96843.11;1817500;79;21476;-59
2022/04/05 19:20:24;;;;;;;9.98;8.90;;;;;;;4.31;91.47;96849.23;1817561;79;21192;-59
2022/04/05 19:22:53;;;;;;;9.10;8.20;;;;;;;4.32;91.50;96860.08;1787764;78;20883;-65
2022/04/05 19:25:22;;;;;;;9.68;8.03;;;;;;;4.33;91.56;96855.05;1819875;78;20883;-58
2022/04/05 19:27:51;;;;;;;9.90;8.08;;;;;;;4.34;91.49;96863.23;1819827;78;20926;-60
2022/04/05 19:30:21;;;;;;;9.80;8.80;;;;;;;4.36;91.40;96862.45;1820378;78;21513;-59
2022/04/05 19:32:52;;;;;;;9.58;8.63;;;;;;;4.40;91.23;96862.14;1819862;78;21118;-61
2022/04/05 19:35:21;;;;;;;9.08;7.90;;;;;;;4.45;91.02;96868.17;1819803;78;20883;-62
2022/04/05 19:37:48;;;;;;;9.28;8.30;;;;;;;4.49;90.71;96865.77;1819785;78;20974;-59
2022/04/05 19:40:17;;;;;;;8.95;7.42;;;;;;;4.50;90.58;96859.42;1819837;78;20903;-64